createdAt,value
2023-08-14T00:01:28.701Z,11.90
2023-08-14T00:04:30.947Z,11.75
2023-08-14T00:07:33.036Z,12.02
2023-08-14T00:10:35.095Z,11.98
2023-08-14T00:13:57.463Z,11.90
2023-08-14T00:17:00.018Z,11.95
2023-08-14T00:20:02.462Z,12.13
2023-08-14T00:23:04.720Z,11.55
2023-08-14T00:26:06.979Z,10.73
2023-08-14T00:29:09.229Z,11.68
2023-08-14T00:32:11.353Z,11.65
2023-08-14T00:35:13.728Z,12.70
2023-08-14T00:38:15.764Z,12.45
2023-08-14T00:41:17.801Z,11.43
2023-08-14T00:44:19.933Z,11.40
2023-08-14T00:47:22.540Z,11.35
2023-08-14T00:50:24.908Z,11.02
2023-08-14T00:53:29.515Z,10.98
2023-08-14T00:56:32.297Z,10.68
2023-08-14T00:59:35.309Z,10.88
2023-08-14T01:02:37.775Z,10.82
2023-08-14T01:05:40.373Z,10.60
2023-08-14T01:08:44.126Z,10.80
2023-08-14T01:12:08.950Z,10.38
2023-08-14T01:15:16.405Z,11.18
2023-08-14T01:18:20.345Z,10.35
2023-08-14T01:21:55.017Z,10.88
2023-08-14T01:25:27.861Z,11.15
2023-08-14T01:28:30.388Z,11.73
2023-08-14T01:31:32.709Z,11.68
2023-08-14T01:34:34.877Z,11.73
2023-08-14T01:37:48.220Z,12.05
2023-08-14T01:40:59.879Z,12.82
2023-08-14T01:44:05.740Z,12.90
2023-08-14T01:47:14.339Z,12.43
2023-08-14T01:50:17.500Z,12.88
2023-08-14T01:53:20.150Z,11.82
2023-08-14T01:56:22.355Z,11.32
2023-08-14T01:59:46.398Z,11.20
2023-08-14T02:02:49.129Z,10.65
2023-08-14T02:05:51.286Z,11.05
2023-08-14T02:08:53.430Z,12.20
2023-08-14T02:11:55.770Z,12.90
2023-08-14T02:14:58.522Z,13.40
2023-08-14T02:18:00.670Z,13.45
2023-08-14T02:21:02.855Z,13.20
2023-08-14T02:24:05.338Z,12.10
2023-08-14T02:27:07.418Z,12.38
2023-08-14T02:30:09.627Z,12.43
2023-08-14T02:33:11.755Z,12.95
2023-08-14T02:36:13.832Z,13.90
2023-08-14T02:39:15.981Z,14.07
2023-08-14T02:42:20.182Z,13.90
2023-08-14T02:45:22.531Z,12.90
2023-08-14T02:48:24.986Z,13.68
2023-08-14T02:51:27.053Z,13.30
2023-08-14T02:54:29.195Z,12.55
2023-08-14T02:57:31.256Z,12.02
2023-08-14T03:00:33.441Z,12.55
2023-08-14T03:03:35.494Z,11.75
2023-08-14T03:06:37.888Z,11.23
2023-08-14T03:09:39.938Z,11.25
2023-08-14T03:12:42.015Z,11.57
2023-08-14T03:15:44.239Z,11.15
2023-08-14T03:18:46.335Z,11.50
2023-08-14T03:21:52.211Z,11.25
2023-08-14T03:24:54.480Z,10.13
2023-08-14T03:27:56.807Z,10.02
2023-08-14T03:30:59.015Z,9.73
2023-08-14T03:34:01.602Z,9.70
2023-08-14T03:37:03.653Z,10.18
2023-08-14T03:40:06.881Z,10.18
2023-08-14T03:43:08.930Z,11.50
2023-08-14T03:46:11.023Z,11.20
2023-08-14T03:49:13.072Z,10.70
2023-08-14T03:52:15.715Z,10.75
2023-08-14T03:55:18.201Z,10.50
2023-08-14T03:58:20.301Z,10.60
2023-08-14T04:01:22.461Z,10.20
2023-08-14T04:04:24.620Z,10.88
2023-08-14T04:07:26.761Z,10.55
2023-08-14T04:10:29.501Z,10.85
2023-08-14T04:13:31.566Z,10.48
2023-08-14T04:16:42.858Z,11.10
2023-08-14T04:19:45.265Z,11.30
2023-08-14T04:22:47.265Z,11.45
2023-08-14T04:25:49.433Z,11.52
2023-08-14T04:28:51.664Z,11.80
2023-08-14T04:31:53.847Z,12.20
2023-08-14T04:34:55.951Z,13.30
2023-08-14T04:37:57.986Z,13.05
2023-08-14T04:41:00.288Z,13.43
2023-08-14T04:44:02.539Z,13.35
2023-08-14T04:47:04.821Z,14.15
2023-08-14T04:50:07.586Z,13.77
2023-08-14T04:53:09.761Z,14.48
2023-08-14T04:56:11.849Z,15.50
2023-08-14T04:59:13.921Z,17.13
2023-08-14T05:02:16.280Z,18.25
2023-08-14T05:05:20.265Z,18.20
2023-08-14T05:08:22.488Z,17.70
2023-08-14T05:11:25.571Z,17.10
2023-08-14T05:14:28.302Z,16.85
2023-08-14T05:17:31.206Z,16.10
2023-08-14T05:20:35.587Z,16.15
2023-08-14T05:23:37.757Z,15.60
2023-08-14T05:26:39.786Z,16.40
2023-08-14T05:29:42.031Z,16.25
2023-08-14T05:32:47.701Z,16.00
2023-08-14T05:35:50.538Z,14.75
2023-08-14T05:38:52.720Z,15.75
2023-08-14T05:41:54.941Z,17.40
2023-08-14T05:44:57.098Z,17.38
2023-08-14T05:47:59.852Z,18.98
2023-08-14T05:51:01.965Z,19.42
2023-08-14T05:54:04.379Z,19.58
2023-08-14T05:57:06.596Z,20.25
2023-08-14T06:00:11.858Z,18.40
2023-08-14T06:03:16.656Z,16.05
2023-08-14T06:06:25.165Z,12.80
2023-08-14T06:09:27.269Z,9.85
2023-08-14T06:12:29.352Z,7.05
2023-08-14T06:15:31.480Z,5.90
2023-08-14T06:18:33.799Z,5.30
2023-08-14T06:21:35.825Z,5.13
2023-08-14T06:24:37.920Z,4.35
2023-08-14T06:27:40.879Z,4.20
2023-08-14T06:30:42.991Z,3.95
2023-08-14T06:33:45.963Z,3.88
2023-08-14T06:36:48.549Z,4.05
2023-08-14T06:39:50.570Z,3.75
2023-08-14T06:42:53.382Z,3.70
2023-08-14T06:45:55.615Z,3.67
2023-08-14T06:48:57.726Z,3.25
2023-08-14T06:51:59.840Z,3.30
2023-08-14T06:55:01.915Z,3.50
2023-08-14T06:58:04.963Z,3.40
2023-08-14T07:01:08.239Z,3.50
2023-08-14T07:04:10.387Z,3.33
2023-08-14T07:07:12.425Z,3.50
2023-08-14T07:10:14.543Z,2.80
2023-08-14T07:13:16.760Z,3.15
2023-08-14T07:16:18.951Z,3.10
2023-08-14T07:19:21.083Z,3.25
2023-08-14T07:22:23.204Z,3.13
2023-08-14T07:25:26.101Z,3.05
2023-08-14T07:28:28.177Z,2.88
2023-08-14T07:31:30.328Z,2.72
2023-08-14T07:34:32.397Z,2.67
2023-08-14T07:37:34.472Z,3.08
2023-08-14T07:40:36.584Z,3.00
2023-08-14T07:43:38.708Z,2.67
2023-08-14T07:46:40.733Z,2.60
2023-08-14T07:49:42.888Z,2.70
2023-08-14T07:52:44.957Z,2.80
2023-08-14T07:55:49.337Z,2.70
2023-08-14T07:58:51.410Z,2.70
2023-08-14T08:01:53.683Z,2.85
2023-08-14T08:04:55.843Z,2.85
2023-08-14T08:07:58.081Z,2.90
2023-08-14T08:11:00.278Z,2.70
2023-08-14T08:14:06.522Z,2.88
2023-08-14T08:17:10.114Z,2.60
2023-08-14T08:20:12.448Z,2.95
2023-08-14T08:23:14.704Z,2.72
2023-08-14T08:26:16.767Z,2.95
2023-08-14T08:29:18.842Z,2.70
2023-08-14T08:32:21.091Z,2.50
2023-08-14T08:35:24.477Z,2.83
2023-08-14T08:38:26.714Z,2.70
2023-08-14T08:41:33.810Z,2.97
2023-08-14T08:44:39.733Z,2.80
2023-08-14T08:47:45.348Z,2.65
2023-08-14T08:50:49.145Z,2.97
2023-08-14T08:53:51.667Z,2.75
2023-08-14T08:56:54.850Z,2.88
2023-08-14T09:00:00.047Z,3.10
2023-08-14T09:03:02.329Z,3.45
2023-08-14T09:06:04.699Z,3.30
2023-08-14T09:09:07.755Z,3.10
2023-08-14T09:12:09.800Z,2.80
2023-08-14T09:15:12.078Z,3.30
2023-08-14T09:18:14.100Z,3.20
2023-08-14T09:21:19.108Z,3.10
2023-08-14T09:24:21.737Z,3.08
2023-08-14T09:27:24.500Z,3.20
2023-08-14T09:30:27.658Z,3.10
2023-08-14T09:33:29.791Z,3.10
2023-08-14T09:36:37.926Z,3.20
2023-08-14T09:39:40.008Z,3.00
2023-08-14T09:42:46.272Z,3.10
2023-08-14T09:45:48.689Z,2.90
2023-08-14T09:48:50.790Z,3.20
2023-08-14T09:51:59.443Z,3.40
2023-08-14T09:55:11.580Z,3.30
2023-08-14T09:58:14.090Z,3.03
2023-08-14T10:01:21.119Z,3.28
2023-08-14T10:04:24.474Z,3.53
2023-08-14T10:07:28.699Z,3.50
2023-08-14T10:10:32.049Z,3.30
2023-08-14T10:13:40.128Z,3.47
2023-08-14T10:16:43.504Z,3.20
2023-08-14T10:19:48.363Z,3.40
2023-08-14T10:22:53.761Z,2.97
2023-08-14T10:25:56.794Z,3.20
2023-08-14T10:28:59.298Z,3.58
2023-08-14T10:32:02.259Z,3.20
2023-08-14T10:35:05.092Z,3.60
2023-08-14T10:38:10.972Z,3.40
2023-08-14T10:41:16.283Z,2.97
2023-08-14T10:44:18.723Z,3.30
2023-08-14T10:47:23.312Z,3.40
2023-08-14T10:50:28.861Z,3.25
2023-08-14T10:53:32.072Z,3.30
2023-08-14T10:56:46.717Z,2.97
2023-08-14T11:00:24.841Z,3.33
2023-08-14T11:03:27.524Z,3.10
2023-08-14T11:06:49.464Z,3.40
2023-08-14T11:09:51.621Z,3.20
2023-08-14T11:12:55.488Z,3.00
2023-08-14T11:15:58.616Z,3.10
2023-08-14T11:19:02.139Z,3.47
2023-08-14T11:22:05.057Z,3.20
2023-08-14T11:25:07.138Z,3.15
2023-08-14T11:28:09.265Z,3.30
2023-08-14T11:31:14.567Z,3.30
2023-08-14T11:34:17.767Z,3.22
2023-08-14T11:37:19.903Z,3.05
2023-08-14T11:40:22.063Z,2.90
2023-08-14T11:43:24.167Z,3.10
2023-08-14T11:46:26.393Z,2.97
2023-08-14T11:49:32.119Z,3.30
2023-08-14T11:52:36.299Z,3.33
2023-08-14T11:55:38.588Z,3.20
2023-08-14T11:58:42.016Z,3.17
2023-08-14T12:01:45.613Z,3.15
2023-08-14T12:04:53.108Z,3.40
2023-08-14T12:07:59.697Z,3.17
2023-08-14T12:11:01.858Z,3.10
2023-08-14T12:14:08.576Z,3.17
2023-08-14T12:17:17.043Z,3.20
2023-08-14T12:20:21.355Z,3.03
2023-08-14T12:23:26.696Z,3.00
2023-08-14T12:26:37.274Z,2.97
2023-08-14T12:29:39.361Z,3.20
2023-08-14T12:32:48.311Z,2.95
2023-08-14T12:35:51.207Z,3.20
2023-08-14T12:38:53.254Z,3.40
2023-08-14T12:41:59.798Z,3.17
2023-08-14T12:45:01.913Z,3.40
2023-08-14T12:48:04.444Z,3.40
2023-08-14T12:54:11.611Z,3.30
2023-08-14T12:57:15.235Z,3.40
2023-08-14T13:00:17.474Z,3.67
2023-08-14T13:03:19.526Z,3.28
2023-08-14T13:06:22.149Z,3.05
2023-08-14T13:09:24.299Z,3.38
2023-08-14T13:12:26.401Z,3.25
2023-08-14T13:15:29.918Z,3.35
2023-08-14T13:18:32.116Z,3.35
2023-08-14T13:21:34.189Z,3.35
2023-08-14T13:24:36.366Z,3.22
2023-08-14T13:27:39.835Z,3.33
2023-08-14T13:30:44.386Z,3.90
2023-08-14T13:33:47.998Z,3.97
2023-08-14T13:36:50.113Z,3.53
2023-08-14T13:39:52.151Z,3.30
2023-08-14T13:42:54.233Z,3.70
2023-08-14T13:45:56.437Z,3.60
2023-08-14T13:48:58.474Z,3.63
2023-08-14T13:52:00.653Z,3.70
2023-08-14T13:55:03.089Z,3.60
2023-08-14T13:58:05.305Z,3.95
2023-08-14T14:01:07.397Z,3.63
2023-08-14T14:04:09.561Z,3.75
2023-08-14T14:07:12.572Z,3.88
2023-08-14T14:10:16.423Z,3.50
2023-08-14T14:13:18.589Z,3.75
2023-08-14T14:16:24.356Z,3.70
2023-08-14T14:19:28.025Z,3.45
2023-08-14T14:22:30.120Z,3.90
2023-08-14T14:25:32.289Z,3.70
2023-08-14T14:28:35.175Z,3.70
2023-08-14T14:31:37.404Z,3.88
2023-08-14T14:34:39.612Z,4.00
2023-08-14T14:37:41.724Z,3.80
2023-08-14T14:40:43.797Z,3.70
2023-08-14T14:43:45.916Z,3.60
2023-08-14T14:46:48.060Z,3.55
2023-08-14T14:49:50.240Z,3.58
2023-08-14T14:52:52.380Z,3.70
2023-08-14T14:55:54.487Z,3.67
2023-08-14T14:58:56.622Z,3.90
2023-08-14T15:01:58.756Z,3.70
2023-08-14T15:05:05.800Z,3.70
2023-08-14T15:08:09.255Z,3.85
2023-08-14T15:11:11.386Z,3.72
2023-08-14T15:14:13.437Z,3.60
2023-08-14T15:17:15.534Z,4.20
2023-08-14T15:20:17.699Z,4.22
2023-08-14T15:23:19.929Z,3.75
2023-08-14T15:26:22.066Z,3.75
2023-08-14T15:29:24.175Z,3.88
2023-08-14T15:32:26.319Z,4.10
2023-08-14T15:35:28.660Z,3.95
2023-08-14T15:38:30.733Z,4.00
2023-08-14T15:41:32.832Z,4.07
2023-08-14T15:44:34.979Z,3.97
2023-08-14T15:47:37.107Z,4.30
2023-08-14T15:50:39.324Z,4.07
2023-08-14T15:53:41.437Z,3.85
2023-08-14T15:56:43.533Z,4.38
2023-08-14T15:59:45.942Z,4.25
2023-08-14T16:02:48.089Z,4.20
2023-08-14T16:05:55.376Z,4.32
2023-08-14T16:08:57.442Z,4.10
2023-08-14T16:11:59.551Z,4.35
2023-08-14T16:15:01.864Z,4.43
2023-08-14T16:18:04.231Z,4.53
2023-08-14T16:21:07.677Z,4.30
2023-08-14T16:24:09.841Z,4.50
2023-08-14T16:27:12.912Z,4.97
2023-08-14T16:30:15.006Z,4.70
2023-08-14T16:33:17.199Z,4.38
2023-08-14T16:36:19.344Z,5.00
2023-08-14T16:39:21.426Z,4.95
2023-08-14T16:42:23.517Z,4.95
2023-08-14T16:45:25.914Z,5.00
2023-08-14T16:48:28.058Z,5.30
2023-08-14T16:51:31.065Z,5.85
2023-08-14T16:54:33.131Z,6.15
2023-08-14T16:57:35.222Z,5.78
2023-08-14T17:00:38.583Z,6.00
2023-08-14T17:03:40.821Z,5.70
2023-08-14T17:06:43.174Z,5.82
2023-08-14T17:09:45.478Z,5.97
2023-08-14T17:12:47.834Z,5.97
2023-08-14T17:15:49.959Z,5.88
2023-08-14T17:18:52.350Z,6.28
2023-08-14T17:21:54.995Z,6.60
2023-08-14T17:24:57.416Z,6.60
2023-08-14T17:27:59.508Z,7.22
2023-08-14T17:31:02.096Z,7.00
2023-08-14T17:34:04.649Z,7.05
2023-08-14T17:37:06.933Z,7.65
2023-08-14T17:40:09.851Z,8.20
2023-08-14T17:43:12.290Z,8.48
2023-08-14T17:46:14.907Z,8.82
2023-08-14T17:49:17.498Z,8.65
2023-08-14T17:52:19.710Z,8.23
2023-08-14T17:55:22.320Z,8.60
2023-08-14T17:58:24.628Z,8.50
2023-08-14T18:01:27.453Z,9.07
2023-08-14T18:04:30.032Z,10.60
2023-08-14T18:07:32.511Z,10.10
2023-08-14T18:10:35.037Z,10.95
2023-08-14T18:13:37.413Z,10.93
2023-08-14T18:16:40.834Z,10.57
2023-08-14T18:19:43.029Z,10.75
2023-08-14T18:22:45.570Z,11.35
2023-08-14T18:25:55.736Z,11.23
2023-08-14T18:28:58.275Z,12.88
2023-08-14T18:32:00.875Z,11.82
2023-08-14T18:35:03.253Z,12.27
2023-08-14T18:38:05.832Z,11.95
2023-08-14T18:41:08.199Z,12.00
2023-08-14T18:44:11.082Z,12.20
2023-08-14T18:47:13.239Z,13.15
2023-08-14T18:50:15.848Z,12.70
2023-08-14T18:53:18.435Z,12.52
2023-08-14T18:56:20.904Z,12.55
2023-08-14T18:59:24.289Z,12.77
2023-08-14T19:02:26.686Z,12.52
2023-08-14T19:05:29.380Z,12.90
2023-08-14T19:08:31.697Z,12.95
2023-08-14T19:11:34.588Z,13.60
2023-08-14T19:14:37.559Z,13.65
2023-08-14T19:17:40.140Z,13.77
2023-08-14T19:20:43.760Z,13.77
2023-08-14T19:23:45.950Z,14.30
2023-08-14T19:26:48.635Z,14.50
2023-08-14T19:29:51.280Z,14.85
2023-08-14T19:32:53.771Z,14.40
2023-08-14T19:35:56.504Z,14.35
2023-08-14T19:38:59.883Z,14.27
2023-08-14T19:42:04.798Z,14.25
2023-08-14T19:45:08.957Z,13.63
2023-08-14T19:48:12.637Z,14.48
2023-08-14T19:51:16.482Z,14.20
2023-08-14T19:54:19.104Z,16.10
2023-08-14T19:57:25.183Z,15.38
2023-08-14T20:00:27.708Z,16.75
2023-08-14T20:03:31.174Z,15.75
2023-08-14T20:06:33.762Z,16.15
2023-08-14T20:09:41.940Z,16.45
2023-08-14T20:12:44.863Z,15.82
2023-08-14T20:15:48.203Z,16.50
2023-08-14T20:18:50.484Z,16.80
2023-08-14T20:21:52.872Z,16.85
2023-08-14T20:24:55.963Z,16.80
2023-08-14T20:27:58.314Z,16.63
2023-08-14T20:31:00.805Z,17.52
2023-08-14T20:34:05.179Z,18.63
2023-08-14T20:37:08.125Z,17.77
2023-08-14T20:40:11.029Z,16.73
2023-08-14T20:43:22.030Z,18.33
2023-08-14T20:46:24.675Z,18.10
2023-08-14T20:49:26.958Z,18.33
2023-08-14T20:52:29.384Z,19.55
2023-08-14T20:55:31.683Z,19.42
2023-08-14T20:58:33.970Z,20.50
2023-08-14T21:01:36.117Z,19.67
2023-08-14T21:04:38.974Z,19.35
2023-08-14T21:07:41.049Z,18.70
2023-08-14T21:10:44.195Z,19.63
2023-08-14T21:13:46.216Z,20.02
2023-08-14T21:16:48.423Z,19.90
2023-08-14T21:19:50.859Z,18.70
2023-08-14T21:22:53.008Z,18.67
2023-08-14T21:25:56.414Z,19.65
2023-08-14T21:28:58.928Z,19.40
2023-08-14T21:32:01.041Z,19.38
2023-08-14T21:35:04.960Z,19.30
2023-08-14T21:38:07.081Z,19.95
2023-08-14T21:41:11.828Z,19.13
2023-08-14T21:44:14.235Z,20.92
2023-08-14T21:47:17.055Z,20.83
2023-08-14T21:50:19.351Z,20.65
2023-08-14T21:53:22.083Z,21.77
2023-08-14T21:56:24.570Z,21.90
2023-08-14T21:59:26.735Z,21.52
2023-08-14T22:02:28.838Z,20.75
2023-08-14T22:05:30.948Z,19.80
2023-08-14T22:08:33.120Z,18.80
2023-08-14T22:11:35.399Z,20.30
2023-08-14T22:14:37.427Z,19.48
2023-08-14T22:17:39.792Z,19.42
2023-08-14T22:20:42.901Z,19.90
2023-08-14T22:23:45.233Z,20.23
2023-08-14T22:26:47.279Z,19.42
2023-08-14T22:29:49.442Z,20.30
2023-08-14T22:32:51.542Z,20.42
2023-08-14T22:35:54.637Z,20.63
2023-08-14T22:38:56.944Z,21.70
2023-08-14T22:41:59.027Z,23.17
2023-08-14T22:45:01.362Z,21.95
2023-08-14T22:48:03.630Z,22.65
2023-08-14T22:51:06.890Z,22.40
2023-08-14T22:54:09.060Z,22.83
2023-08-14T22:57:11.216Z,22.40
2023-08-14T23:00:13.720Z,23.00
2023-08-14T23:03:16.454Z,22.95
2023-08-14T23:06:18.549Z,22.98
2023-08-14T23:09:20.734Z,23.65
2023-08-14T23:12:22.883Z,22.67
2023-08-14T23:15:25.122Z,22.95
2023-08-14T23:18:27.309Z,23.10
2023-08-14T23:21:29.531Z,21.58
2023-08-14T23:24:31.984Z,22.08
2023-08-14T23:27:34.091Z,22.60
2023-08-14T23:30:39.765Z,23.77
2023-08-14T23:33:41.931Z,22.85
2023-08-14T23:36:44.675Z,22.77
2023-08-14T23:39:46.859Z,22.77
2023-08-14T23:42:48.962Z,24.30
2023-08-14T23:45:51.040Z,23.73
2023-08-14T23:48:53.668Z,22.65
2023-08-14T23:51:55.798Z,22.35
2023-08-14T23:54:57.896Z,24.08
2023-08-14T23:58:00.048Z,23.77
